createdAt,value
2022-10-26T00:01:43.106Z,3.72
2022-10-26T00:04:11.100Z,3.20
2022-10-26T00:06:38.996Z,3.00
2022-10-26T00:09:06.913Z,3.15
2022-10-26T00:11:34.776Z,3.10
2022-10-26T00:14:04.034Z,3.47
2022-10-26T00:16:31.915Z,3.28
2022-10-26T00:18:59.810Z,3.30
2022-10-26T00:21:28.742Z,3.28
2022-10-26T00:23:56.603Z,3.22
2022-10-26T00:26:24.480Z,3.15
2022-10-26T00:28:54.256Z,3.13
2022-10-26T00:31:23.496Z,3.15
2022-10-26T00:33:53.703Z,3.13
2022-10-26T00:36:23.501Z,3.30
2022-10-26T00:38:51.571Z,3.42
2022-10-26T00:41:20.134Z,3.00
2022-10-26T00:43:48.133Z,3.25
2022-10-26T00:46:17.817Z,2.92
2022-10-26T00:48:48.241Z,3.30
2022-10-26T00:51:19.221Z,3.40
2022-10-26T00:53:47.112Z,3.25
2022-10-26T00:56:15.912Z,3.13
2022-10-26T00:58:43.871Z,3.33
2022-10-26T01:01:11.812Z,2.92
2022-10-26T01:03:39.834Z,3.20
2022-10-26T01:06:09.546Z,3.15
2022-10-26T01:08:37.401Z,3.28
2022-10-26T01:11:05.475Z,3.10
2022-10-26T01:13:35.807Z,3.00
2022-10-26T01:16:25.270Z,3.03
2022-10-26T01:18:57.900Z,2.97
2022-10-26T01:21:39.697Z,3.20
2022-10-26T01:24:22.486Z,3.15
2022-10-26T01:26:59.561Z,3.00
2022-10-26T01:29:53.826Z,2.90
2022-10-26T01:32:24.599Z,3.05
2022-10-26T01:34:54.827Z,3.13
2022-10-26T01:37:24.590Z,2.80
2022-10-26T01:39:54.570Z,3.08
2022-10-26T01:42:22.886Z,2.80
2022-10-26T01:44:53.057Z,3.30
2022-10-26T01:47:21.147Z,3.10
2022-10-26T01:49:52.092Z,3.15
2022-10-26T01:52:20.134Z,3.00
2022-10-26T01:54:47.998Z,3.10
2022-10-26T01:57:17.351Z,3.03
2022-10-26T02:00:08.793Z,3.15
2022-10-26T02:02:50.034Z,3.17
2022-10-26T02:05:31.725Z,3.03
2022-10-26T02:08:05.377Z,3.20
2022-10-26T02:10:38.689Z,3.10
2022-10-26T02:13:10.981Z,3.40
2022-10-26T02:15:42.668Z,3.20
2022-10-26T02:18:14.978Z,3.22
2022-10-26T02:20:45.203Z,3.25
2022-10-26T02:23:13.068Z,3.10
2022-10-26T02:25:42.158Z,3.17
2022-10-26T02:28:11.214Z,3.03
2022-10-26T02:30:39.107Z,3.15
2022-10-26T02:33:06.991Z,3.40
2022-10-26T02:35:35.595Z,3.17
2022-10-26T02:38:08.459Z,3.22
2022-10-26T02:40:36.373Z,3.40
2022-10-26T02:43:05.785Z,3.22
2022-10-26T02:45:35.833Z,2.72
2022-10-26T02:48:03.768Z,3.13
2022-10-26T02:50:34.205Z,3.42
2022-10-26T02:53:06.622Z,3.15
2022-10-26T02:55:37.660Z,3.00
2022-10-26T02:58:07.637Z,3.20
2022-10-26T03:00:35.509Z,3.35
2022-10-26T03:03:03.715Z,3.00
2022-10-26T03:05:32.906Z,3.10
2022-10-26T03:08:01.710Z,2.90
2022-10-26T03:10:30.917Z,3.13
2022-10-26T03:12:58.774Z,3.40
2022-10-26T03:15:26.633Z,2.80
2022-10-26T03:17:54.541Z,3.10
2022-10-26T03:20:22.461Z,3.22
2022-10-26T03:22:50.343Z,3.30
2022-10-26T03:25:18.280Z,3.40
2022-10-26T03:27:49.075Z,3.33
2022-10-26T03:30:17.227Z,2.97
2022-10-26T03:32:45.099Z,2.90
2022-10-26T03:35:12.966Z,3.25
2022-10-26T03:37:40.850Z,3.00
2022-10-26T03:40:10.469Z,3.15
2022-10-26T03:42:38.418Z,3.22
2022-10-26T03:45:08.784Z,3.42
2022-10-26T03:47:41.314Z,3.47
2022-10-26T03:50:10.082Z,3.50
2022-10-26T03:52:37.955Z,5.13
2022-10-26T03:55:06.668Z,4.88
2022-10-26T03:57:34.564Z,5.60
2022-10-26T04:00:03.312Z,4.60
2022-10-26T04:02:40.914Z,4.40
2022-10-26T04:05:10.240Z,4.40
2022-10-26T04:07:38.140Z,4.95
2022-10-26T04:10:07.049Z,4.65
2022-10-26T04:12:37.557Z,4.50
2022-10-26T04:15:06.945Z,4.20
2022-10-26T04:17:35.006Z,4.60
2022-10-26T04:20:04.650Z,4.50
2022-10-26T04:22:32.525Z,4.65
2022-10-26T04:25:00.391Z,4.07
2022-10-26T04:27:28.251Z,4.63
2022-10-26T04:29:56.153Z,4.65
2022-10-26T04:32:24.080Z,4.25
2022-10-26T04:34:54.271Z,4.40
2022-10-26T04:37:23.520Z,4.40
2022-10-26T04:39:51.412Z,4.03
2022-10-26T04:42:19.275Z,4.20
2022-10-26T04:44:47.149Z,4.03
2022-10-26T04:47:15.012Z,4.53
2022-10-26T04:49:42.896Z,4.10
2022-10-26T04:52:10.805Z,4.30
2022-10-26T04:54:40.038Z,3.78
2022-10-26T04:57:07.917Z,4.53
2022-10-26T04:59:35.797Z,4.18
2022-10-26T05:02:03.770Z,4.00
2022-10-26T05:04:31.732Z,4.20
2022-10-26T05:06:59.641Z,4.00
2022-10-26T05:09:27.572Z,4.30
2022-10-26T05:11:56.790Z,4.18
2022-10-26T05:14:24.691Z,4.20
2022-10-26T05:16:55.341Z,3.95
2022-10-26T05:19:23.260Z,4.15
2022-10-26T05:21:53.170Z,4.07
2022-10-26T05:24:21.175Z,4.05
2022-10-26T05:26:49.125Z,4.35
2022-10-26T05:29:18.386Z,4.00
2022-10-26T05:31:46.243Z,4.50
2022-10-26T05:34:14.211Z,4.30
2022-10-26T05:36:42.107Z,4.78
2022-10-26T05:39:09.960Z,4.47
2022-10-26T05:41:37.949Z,5.18
2022-10-26T05:44:06.035Z,5.93
2022-10-26T05:46:35.251Z,6.30
2022-10-26T05:49:03.145Z,5.38
2022-10-26T05:51:31.097Z,5.47
2022-10-26T05:53:59.017Z,6.25
2022-10-26T05:56:36.473Z,5.90
2022-10-26T05:59:04.872Z,6.28
2022-10-26T06:01:39.953Z,6.38
2022-10-26T06:04:13.579Z,6.18
2022-10-26T06:06:43.446Z,6.00
2022-10-26T06:09:11.948Z,5.75
2022-10-26T06:11:40.407Z,6.18
2022-10-26T06:14:09.357Z,5.60
2022-10-26T06:16:42.303Z,5.60
2022-10-26T06:19:16.456Z,5.57
2022-10-26T06:21:53.032Z,5.88
2022-10-26T06:24:23.486Z,5.22
2022-10-26T06:26:54.160Z,5.07
2022-10-26T06:29:25.965Z,4.70
2022-10-26T06:31:55.278Z,5.18
2022-10-26T06:34:26.193Z,5.10
2022-10-26T06:39:27.830Z,5.22
2022-10-26T06:41:56.295Z,4.90
2022-10-26T06:44:26.971Z,5.15
2022-10-26T06:47:00.723Z,4.90
2022-10-26T06:49:30.255Z,4.80
2022-10-26T06:52:00.014Z,4.78
2022-10-26T06:54:32.042Z,4.40
2022-10-26T06:57:00.587Z,4.53
2022-10-26T06:59:33.888Z,5.18
2022-10-26T07:02:06.368Z,4.70
2022-10-26T07:04:34.907Z,5.35
2022-10-26T07:07:02.816Z,4.88
2022-10-26T07:09:30.718Z,5.43
2022-10-26T07:11:58.661Z,6.78
2022-10-26T07:14:26.634Z,7.40
2022-10-26T07:16:54.618Z,8.55
2022-10-26T07:19:23.935Z,8.10
2022-10-26T07:21:51.837Z,10.40
2022-10-26T07:24:19.760Z,9.35
2022-10-26T07:26:47.704Z,9.30
2022-10-26T07:29:16.396Z,8.23
2022-10-26T07:31:44.351Z,7.22
2022-10-26T07:34:12.313Z,7.40
2022-10-26T07:36:41.563Z,7.28
2022-10-26T07:39:09.518Z,9.00
2022-10-26T07:41:37.476Z,8.90
2022-10-26T07:44:05.460Z,8.10
2022-10-26T07:46:33.342Z,7.57
2022-10-26T07:49:01.248Z,8.45
2022-10-26T07:51:29.522Z,7.32
2022-10-26T07:53:58.853Z,7.95
2022-10-26T07:56:26.878Z,10.52
2022-10-26T07:58:55.377Z,10.23
2022-10-26T08:01:23.586Z,10.55
2022-10-26T08:03:53.137Z,12.27
2022-10-26T08:06:21.035Z,11.95
2022-10-26T08:08:48.902Z,11.25
2022-10-26T08:11:18.308Z,10.77
2022-10-26T08:13:46.301Z,11.27
2022-10-26T08:16:14.258Z,10.52
2022-10-26T08:18:42.144Z,10.57
2022-10-26T08:21:15.637Z,10.50
2022-10-26T08:23:49.267Z,10.15
2022-10-26T08:26:18.572Z,9.95
2022-10-26T08:28:49.465Z,9.77
2022-10-26T08:31:17.346Z,9.80
2022-10-26T08:33:45.399Z,9.57
2022-10-26T08:36:14.620Z,9.10
2022-10-26T08:38:42.559Z,8.82
2022-10-26T08:41:11.602Z,9.60
2022-10-26T08:43:41.748Z,9.48
2022-10-26T08:46:12.588Z,9.48
2022-10-26T08:48:41.994Z,9.50
2022-10-26T08:51:11.880Z,8.80
2022-10-26T08:53:41.474Z,9.30
2022-10-26T08:56:13.968Z,9.55
2022-10-26T08:58:46.465Z,8.88
2022-10-26T09:01:14.588Z,8.68
2022-10-26T09:03:44.350Z,9.00
2022-10-26T09:06:22.214Z,8.73
2022-10-26T09:08:55.740Z,8.30
2022-10-26T09:11:29.359Z,8.70
2022-10-26T09:14:03.585Z,8.73
2022-10-26T09:16:34.007Z,8.43
2022-10-26T09:19:24.773Z,8.82
2022-10-26T09:21:54.528Z,8.82
2022-10-26T09:24:24.298Z,8.10
2022-10-26T09:26:55.497Z,8.23
2022-10-26T09:29:27.721Z,8.27
2022-10-26T09:31:55.794Z,7.50
2022-10-26T09:34:28.186Z,7.57
2022-10-26T09:36:56.879Z,8.32
2022-10-26T09:39:36.743Z,7.95
2022-10-26T09:42:08.007Z,8.00
2022-10-26T09:44:38.175Z,7.32
2022-10-26T09:47:07.645Z,7.25
2022-10-26T09:49:38.681Z,7.30
2022-10-26T09:52:06.725Z,7.40
2022-10-26T09:54:34.689Z,7.30
2022-10-26T09:57:02.752Z,7.57
2022-10-26T09:59:33.514Z,7.68
2022-10-26T10:02:03.042Z,7.00
2022-10-26T10:04:33.732Z,6.90
2022-10-26T10:07:13.766Z,7.55
2022-10-26T10:09:41.692Z,7.15
2022-10-26T10:12:19.737Z,7.03
2022-10-26T10:14:57.396Z,7.22
2022-10-26T10:17:26.656Z,7.03
2022-10-26T10:19:54.551Z,6.85
2022-10-26T10:22:25.652Z,6.82
2022-10-26T10:24:57.225Z,6.72
2022-10-26T10:27:25.324Z,6.63
2022-10-26T10:29:58.460Z,6.78
2022-10-26T10:32:35.410Z,6.45
2022-10-26T10:35:23.054Z,6.65
2022-10-26T10:37:50.889Z,6.97
2022-10-26T10:40:19.687Z,6.57
2022-10-26T10:42:48.310Z,6.35
2022-10-26T10:45:20.415Z,6.45
2022-10-26T10:48:00.612Z,6.00
2022-10-26T10:50:28.464Z,6.35
2022-10-26T10:53:11.634Z,6.32
2022-10-26T10:55:39.560Z,6.35
2022-10-26T10:58:12.119Z,6.10
2022-10-26T11:00:40.041Z,6.05
2022-10-26T11:03:34.477Z,6.05
2022-10-26T11:06:12.213Z,6.07
2022-10-26T11:08:42.568Z,5.78
2022-10-26T11:11:12.773Z,6.18
2022-10-26T11:13:42.617Z,5.97
2022-10-26T11:16:13.393Z,6.18
2022-10-26T11:18:44.796Z,5.97
2022-10-26T11:21:18.637Z,5.88
2022-10-26T11:23:47.759Z,5.35
2022-10-26T11:26:16.907Z,5.60
2022-10-26T11:28:48.549Z,5.40
2022-10-26T11:31:18.523Z,5.40
2022-10-26T11:33:50.587Z,5.22
2022-10-26T11:36:21.792Z,5.10
2022-10-26T11:38:57.339Z,5.60
2022-10-26T11:41:27.005Z,5.22
2022-10-26T11:43:56.200Z,5.32
2022-10-26T11:46:25.372Z,5.13
2022-10-26T11:48:56.746Z,5.38
2022-10-26T11:51:36.331Z,5.15
2022-10-26T11:54:06.911Z,4.47
2022-10-26T11:56:36.990Z,4.50
2022-10-26T11:59:04.949Z,4.80
2022-10-26T12:01:32.878Z,4.40
2022-10-26T12:04:02.205Z,4.50
2022-10-26T12:06:32.440Z,4.35
2022-10-26T12:09:02.744Z,4.45
2022-10-26T12:11:36.767Z,4.65
2022-10-26T12:14:07.066Z,4.47
2022-10-26T12:16:43.784Z,4.20
2022-10-26T12:19:15.778Z,4.53
2022-10-26T12:21:44.242Z,4.57
2022-10-26T12:24:35.087Z,4.38
2022-10-26T12:27:03.304Z,4.00
2022-10-26T12:29:46.095Z,4.30
2022-10-26T12:32:50.930Z,4.45
2022-10-26T12:35:39.128Z,4.13
2022-10-26T12:38:49.500Z,4.10
2022-10-26T12:41:24.853Z,4.10
2022-10-26T12:43:58.773Z,4.00
2022-10-26T12:46:45.350Z,4.20
2022-10-26T12:49:57.151Z,4.28
2022-10-26T12:52:40.603Z,3.85
2022-10-26T12:55:44.310Z,4.10
2022-10-26T12:58:44.548Z,3.80
2022-10-26T13:01:54.325Z,3.90
2022-10-26T13:05:05.993Z,3.80
2022-10-26T13:07:37.598Z,3.53
2022-10-26T13:10:06.961Z,3.95
2022-10-26T13:12:39.939Z,4.05
2022-10-26T13:15:20.810Z,3.85
2022-10-26T13:17:58.535Z,3.70
2022-10-26T13:20:26.460Z,3.83
2022-10-26T13:22:55.777Z,3.72
2022-10-26T13:25:24.889Z,3.58
2022-10-26T13:28:01.116Z,3.80
2022-10-26T13:30:48.001Z,4.07
2022-10-26T13:33:30.077Z,3.78
2022-10-26T13:36:00.316Z,3.90
2022-10-26T13:38:33.318Z,3.88
2022-10-26T13:41:08.115Z,3.90
2022-10-26T13:43:37.169Z,3.70
2022-10-26T13:46:05.154Z,4.05
2022-10-26T13:48:37.949Z,3.70
2022-10-26T13:51:11.815Z,3.83
2022-10-26T13:53:43.906Z,3.47
2022-10-26T13:56:18.741Z,3.67
2022-10-26T13:58:48.755Z,4.00
2022-10-26T14:01:18.120Z,3.97
2022-10-26T14:03:46.062Z,3.70
2022-10-26T14:06:17.684Z,3.75
2022-10-26T14:08:49.492Z,3.85
2022-10-26T14:11:19.400Z,3.92
2022-10-26T14:13:47.325Z,3.92
2022-10-26T14:16:17.433Z,3.92
2022-10-26T14:18:46.533Z,3.47
2022-10-26T14:21:16.197Z,3.70
2022-10-26T14:23:49.867Z,3.33
2022-10-26T14:26:22.036Z,3.88
2022-10-26T14:28:51.593Z,3.50
2022-10-26T14:31:24.807Z,3.90
2022-10-26T14:33:52.876Z,3.60
2022-10-26T14:36:21.994Z,3.67
2022-10-26T14:38:53.171Z,3.58
2022-10-26T14:41:21.089Z,3.58
2022-10-26T14:43:48.943Z,3.78
2022-10-26T14:46:17.502Z,4.00
2022-10-26T14:48:52.802Z,3.75
2022-10-26T14:51:21.584Z,3.67
2022-10-26T14:53:51.866Z,3.90
2022-10-26T14:56:29.809Z,4.00
2022-10-26T14:58:58.123Z,3.60
2022-10-26T15:01:36.699Z,3.80
2022-10-26T15:04:05.888Z,3.72
2022-10-26T15:06:42.002Z,3.60
2022-10-26T15:09:39.268Z,3.90
2022-10-26T15:12:07.495Z,3.58
2022-10-26T15:14:35.406Z,3.70
2022-10-26T15:17:03.440Z,3.90
2022-10-26T15:19:31.369Z,4.13
2022-10-26T15:21:59.424Z,3.90
2022-10-26T15:24:32.050Z,3.70
2022-10-26T15:27:03.816Z,3.90
2022-10-26T15:29:50.183Z,3.63
2022-10-26T15:32:29.218Z,3.50
2022-10-26T15:35:22.449Z,3.92
2022-10-26T15:37:51.164Z,3.78
2022-10-26T15:40:19.208Z,3.95
2022-10-26T15:42:50.245Z,3.50
2022-10-26T15:45:19.959Z,3.50
2022-10-26T15:47:48.077Z,3.50
2022-10-26T15:50:16.785Z,4.45
2022-10-26T15:52:48.227Z,4.00
2022-10-26T15:55:17.458Z,3.78
2022-10-26T15:57:45.537Z,3.78
2022-10-26T16:00:18.076Z,3.92
2022-10-26T16:02:46.221Z,3.53
2022-10-26T16:05:16.019Z,3.72
2022-10-26T16:07:44.642Z,3.60
2022-10-26T16:10:23.185Z,3.58
2022-10-26T16:12:51.129Z,3.88
2022-10-26T16:15:21.792Z,3.72
2022-10-26T16:17:50.251Z,4.07
2022-10-26T16:20:20.080Z,3.70
2022-10-26T16:22:48.961Z,3.90
2022-10-26T16:25:17.891Z,3.90
2022-10-26T16:27:46.074Z,3.60
2022-10-26T16:30:14.872Z,3.88
2022-10-26T16:32:44.135Z,3.90
2022-10-26T16:35:12.034Z,3.65
2022-10-26T16:37:39.953Z,3.90
2022-10-26T16:40:09.352Z,4.05
2022-10-26T16:42:37.258Z,3.80
2022-10-26T16:45:06.047Z,3.75
2022-10-26T16:47:35.501Z,3.42
2022-10-26T16:50:05.506Z,3.55
2022-10-26T16:52:34.361Z,3.90
2022-10-26T16:55:02.349Z,3.58
2022-10-26T16:57:30.237Z,3.90
2022-10-26T16:59:58.443Z,3.58
2022-10-26T17:02:26.410Z,4.20
2022-10-26T17:04:54.366Z,3.63
2022-10-26T17:07:23.596Z,4.13
2022-10-26T17:09:51.445Z,3.72
2022-10-26T17:12:19.431Z,3.65
2022-10-26T17:14:47.627Z,3.75
2022-10-26T17:17:15.522Z,4.20
2022-10-26T17:19:43.482Z,3.85
2022-10-26T17:22:11.394Z,4.10
2022-10-26T17:24:40.700Z,3.60
2022-10-26T17:27:08.649Z,4.00
2022-10-26T17:29:36.533Z,3.88
2022-10-26T17:32:04.503Z,3.92
2022-10-26T17:34:32.435Z,3.97
2022-10-26T17:37:00.373Z,4.07
2022-10-26T17:39:29.451Z,4.18
2022-10-26T17:41:58.693Z,4.00
2022-10-26T17:44:26.569Z,4.18
2022-10-26T17:46:54.445Z,4.18
2022-10-26T17:49:24.912Z,4.75
2022-10-26T17:51:54.812Z,4.30
2022-10-26T17:54:23.005Z,4.40
2022-10-26T17:56:50.905Z,4.43
2022-10-26T17:59:20.147Z,4.68
2022-10-26T18:01:48.118Z,4.18
2022-10-26T18:04:16.071Z,5.20
2022-10-26T18:06:43.989Z,4.40
2022-10-26T18:09:11.979Z,4.82
2022-10-26T18:11:40.014Z,4.80
2022-10-26T18:14:07.962Z,4.70
2022-10-26T18:16:37.184Z,4.70
2022-10-26T18:19:05.394Z,4.90
2022-10-26T18:21:34.228Z,5.07
2022-10-26T18:24:02.173Z,5.05
2022-10-26T18:26:30.631Z,4.80
2022-10-26T18:28:58.678Z,4.82
2022-10-26T18:31:27.293Z,4.90
2022-10-26T18:34:00.213Z,4.97
2022-10-26T18:36:28.400Z,5.43
2022-10-26T18:38:56.704Z,5.03
2022-10-26T18:41:25.023Z,5.10
2022-10-26T18:43:54.079Z,5.50
2022-10-26T18:46:24.196Z,5.25
2022-10-26T18:48:52.271Z,5.25
2022-10-26T18:51:22.425Z,5.60
2022-10-26T18:53:50.506Z,5.55
2022-10-26T18:56:20.008Z,5.47
2022-10-26T18:58:50.289Z,4.93
2022-10-26T19:01:19.284Z,5.50
2022-10-26T19:03:48.501Z,5.47
2022-10-26T19:06:17.583Z,5.28
2022-10-26T19:08:48.240Z,5.40
2022-10-26T19:11:17.171Z,5.75
2022-10-26T19:13:45.414Z,5.53
2022-10-26T19:16:21.780Z,6.07
2022-10-26T19:18:56.712Z,5.90
2022-10-26T19:21:25.172Z,6.13
2022-10-26T19:23:55.267Z,6.30
2022-10-26T19:26:24.674Z,6.03
2022-10-26T19:28:56.171Z,6.00
2022-10-26T19:31:27.099Z,6.10
2022-10-26T19:33:56.386Z,6.10
2022-10-26T19:36:24.318Z,6.85
2022-10-26T19:38:52.319Z,6.60
2022-10-26T19:41:22.442Z,6.53
2022-10-26T19:43:50.514Z,6.22
2022-10-26T19:46:19.168Z,6.63
2022-10-26T19:48:49.405Z,6.95
2022-10-26T19:51:17.405Z,7.00
2022-10-26T19:53:45.321Z,6.90
2022-10-26T19:56:13.437Z,7.18
2022-10-26T19:58:43.360Z,6.88
2022-10-26T20:01:11.866Z,6.75
2022-10-26T20:03:39.847Z,6.80
2022-10-26T20:06:11.301Z,7.28
2022-10-26T20:08:39.415Z,6.97
2022-10-26T20:11:10.183Z,7.40
2022-10-26T20:13:42.472Z,7.35
2022-10-26T20:16:10.528Z,7.47
2022-10-26T20:18:41.322Z,7.25
2022-10-26T20:21:13.981Z,7.40
2022-10-26T20:23:42.505Z,7.55
2022-10-26T20:26:11.958Z,7.45
2022-10-26T20:28:46.626Z,7.85
2022-10-26T20:31:14.543Z,7.63
2022-10-26T20:33:42.932Z,8.18
2022-10-26T20:36:10.875Z,8.07
2022-10-26T20:38:40.052Z,7.88
2022-10-26T20:41:10.589Z,8.40
2022-10-26T20:43:39.109Z,8.35
2022-10-26T20:46:10.416Z,9.20
2022-10-26T20:48:39.163Z,8.52
2022-10-26T20:51:08.414Z,8.73
2022-10-26T20:53:37.142Z,8.55
2022-10-26T20:56:07.078Z,8.73
2022-10-26T20:58:41.583Z,8.85
2022-10-26T21:01:16.365Z,9.18
2022-10-26T21:03:44.493Z,8.80
2022-10-26T21:06:12.558Z,8.68
2022-10-26T21:08:40.442Z,8.80
2022-10-26T21:11:08.298Z,8.63
2022-10-26T21:13:36.231Z,9.10
2022-10-26T21:16:05.250Z,9.32
2022-10-26T21:18:34.563Z,9.32
2022-10-26T21:21:02.497Z,8.93
2022-10-26T21:23:31.510Z,9.70
2022-10-26T21:25:59.426Z,9.10
2022-10-26T21:28:27.511Z,9.35
2022-10-26T21:30:55.402Z,8.98
2022-10-26T21:33:30.284Z,9.52
2022-10-26T21:35:59.638Z,9.35
2022-10-26T21:38:27.885Z,9.70
2022-10-26T21:41:03.932Z,10.07
2022-10-26T21:43:31.926Z,9.55
2022-10-26T21:46:03.555Z,10.07
2022-10-26T21:48:31.954Z,9.40
2022-10-26T21:51:01.920Z,10.55
2022-10-26T21:53:30.069Z,9.52
2022-10-26T21:56:01.761Z,9.05
2022-10-26T21:58:29.756Z,9.60
2022-10-26T22:01:05.483Z,10.32
2022-10-26T22:03:33.763Z,9.68
2022-10-26T22:06:03.050Z,10.77
2022-10-26T22:08:31.011Z,10.60
2022-10-26T22:10:58.940Z,10.35
2022-10-26T22:13:26.824Z,10.60
2022-10-26T22:16:04.633Z,10.15
2022-10-26T22:18:34.863Z,10.88
2022-10-26T22:21:04.348Z,10.43
2022-10-26T22:23:33.885Z,10.52
2022-10-26T22:26:05.265Z,10.60
2022-10-26T22:28:36.275Z,10.93
2022-10-26T22:31:05.452Z,10.88
2022-10-26T22:33:33.954Z,10.93
2022-10-26T22:36:07.205Z,11.20
2022-10-26T22:38:35.205Z,11.90
2022-10-26T22:41:03.176Z,11.70
2022-10-26T22:43:31.190Z,11.82
2022-10-26T22:46:02.525Z,12.63
2022-10-26T22:48:30.522Z,11.57
2022-10-26T22:50:58.443Z,11.82
2022-10-26T22:53:27.673Z,11.60
2022-10-26T22:55:55.584Z,12.02
2022-10-26T22:58:23.506Z,11.90
2022-10-26T23:00:51.655Z,12.10
2022-10-26T23:03:19.560Z,11.10
2022-10-26T23:05:47.817Z,11.02
2022-10-26T23:08:15.768Z,11.30
2022-10-26T23:10:45.004Z,11.40
2022-10-26T23:13:12.899Z,11.27
2022-10-26T23:15:40.785Z,12.02
2022-10-26T23:18:08.672Z,11.50
2022-10-26T23:20:36.800Z,10.75
2022-10-26T23:23:04.735Z,11.40
2022-10-26T23:25:32.655Z,11.27
2022-10-26T23:28:01.911Z,11.40
2022-10-26T23:30:29.849Z,10.73
2022-10-26T23:32:57.785Z,10.73
2022-10-26T23:35:25.728Z,11.50
2022-10-26T23:37:53.667Z,11.90
2022-10-26T23:40:21.570Z,11.13
2022-10-26T23:42:49.835Z,11.27
2022-10-26T23:45:19.777Z,11.23
2022-10-26T23:47:48.011Z,10.57
2022-10-26T23:50:16.123Z,10.23
2022-10-26T23:52:47.818Z,10.80
2022-10-26T23:55:15.927Z,10.95
2022-10-26T23:57:43.863Z,10.77
